Time;durP1;ratioP1;P1;durP2;ratioP2;P2;SDS_P1;SDS_P2;PMS_P1;PMS_P2;Temp;Humidity;BMP_temperature;BMP_pressure;BME280_temperature;BME280_humidity;BME280_pressure;Samples;Min_cycle;Max_cycle;Signal;HPM_P1;HPM_P2
2023/05/16 00:02:24;;;;;;;10.68;6.82;;;;;;;;;;4994636;28;20264;-80
2023/05/16 00:04:50;;;;;;;9.38;6.90;;;;;;;;;;4995188;28;20470;-78
2023/05/16 00:07:16;;;;;;;15.23;7.53;;;;;;;;;;4994880;28;20570;-79
2023/05/16 00:09:44;;;;;;;13.15;7.10;;;;;;;;;;4995021;28;20066;-79
2023/05/16 00:12:09;;;;;;;11.52;7.30;;;;;;;;;;4993574;28;20030;-80
2023/05/16 00:14:43;;;;;;;12.13;7.55;;;;;;;;;;4994289;28;20120;-80
2023/05/16 00:17:10;;;;;;;11.68;7.20;;;;;;;;;;4994911;28;20027;-78
2023/05/16 00:19:39;;;;;;;8.90;7.18;;;;;;;;;;4994797;28;20113;-84
2023/05/16 00:22:04;;;;;;;9.68;7.13;;;;;;;;;;4977375;28;20042;-80
2023/05/16 00:24:33;;;;;;;9.55;7.53;;;;;;;;;;4995613;28;20031;-81
2023/05/16 00:26:58;;;;;;;9.60;7.20;;;;;;;;;;4997950;28;20026;-82
2023/05/16 00:29:23;;;;;;;9.10;7.43;;;;;;;;;;4996474;28;20049;-80
2023/05/16 00:31:49;;;;;;;8.38;6.80;;;;;;;;;;4997977;28;20485;-81
2023/05/16 00:34:14;;;;;;;9.52;7.25;;;;;;;;;;4997590;28;20028;-79
2023/05/16 00:36:42;;;;;;;9.65;7.45;;;;;;;;;;4997964;28;20026;-79
2023/05/16 00:39:07;;;;;;;11.32;7.60;;;;;;;;;;4997906;28;20084;-77
2023/05/16 00:41:33;;;;;;;8.87;7.53;;;;;;;;;;4999095;28;20409;-79
2023/05/16 00:43:58;;;;;;;11.60;7.40;;;;;;;;;;4998936;28;20695;-79
2023/05/16 00:46:23;;;;;;;12.00;7.22;;;;;;;;;;4998895;28;20429;-77
2023/05/16 00:48:48;;;;;;;9.47;7.20;;;;;;;;;;5000764;28;20026;-78
2023/05/16 00:51:15;;;;;;;9.05;7.28;;;;;;;;;;5005635;28;20260;-76
2023/05/16 00:53:41;;;;;;;9.07;6.88;;;;;;;;;;4988246;28;20031;-79
2023/05/16 00:56:06;;;;;;;10.07;7.80;;;;;;;;;;5003683;28;20029;-78
2023/05/16 00:58:32;;;;;;;12.45;7.28;;;;;;;;;;5000598;28;20053;-78
2023/05/16 01:00:58;;;;;;;10.13;7.60;;;;;;;;;;4983682;28;20072;-78
2023/05/16 01:03:23;;;;;;;10.48;7.65;;;;;;;;;;5001395;28;20026;-78
2023/05/16 01:05:49;;;;;;;9.47;7.67;;;;;;;;;;5000142;28;20022;-77
2023/05/16 01:08:14;;;;;;;10.10;8.20;;;;;;;;;;5000650;28;20271;-79
2023/05/16 01:10:49;;;;;;;12.30;7.78;;;;;;;;;;5001686;28;20109;-79
2023/05/16 01:13:28;;;;;;;10.80;7.72;;;;;;;;;;5000643;28;20047;-78
2023/05/16 01:15:58;;;;;;;11.43;7.15;;;;;;;;;;4999752;28;20058;-78
2023/05/16 01:18:32;;;;;;;12.25;7.63;;;;;;;;;;4998838;28;20116;-78
2023/05/16 01:21:06;;;;;;;9.00;7.68;;;;;;;;;;5000089;28;20031;-77
2023/05/16 01:23:52;;;;;;;10.50;7.90;;;;;;;;;;5000855;28;20054;-79
2023/05/16 01:26:23;;;;;;;14.15;7.93;;;;;;;;;;5000313;28;20027;-78
2023/05/16 01:28:51;;;;;;;8.57;7.10;;;;;;;;;;4998333;28;20034;-78
2023/05/16 01:31:17;;;;;;;8.35;7.22;;;;;;;;;;4981914;28;20044;-78
2023/05/16 01:33:42;;;;;;;8.50;7.20;;;;;;;;;;4999745;28;20113;-78
2023/05/16 01:36:25;;;;;;;9.75;7.82;;;;;;;;;;4999991;28;20033;-78
2023/05/16 01:39:09;;;;;;;9.65;7.88;;;;;;;;;;4982122;28;20037;-77
2023/05/16 01:41:58;;;;;;;;;;;;;;;;;;4999211;28;20034;-78
2023/05/16 01:44:45;;;;;;;9.45;7.03;;;;;;;;;;4998247;28;19909;-77
2023/05/16 01:47:12;;;;;;;10.35;7.38;;;;;;;;;;4996608;28;20038;-77
2023/05/16 01:49:43;;;;;;;11.23;8.10;;;;;;;;;;4997917;28;20114;-78
2023/05/16 01:52:20;;;;;;;8.95;7.47;;;;;;;;;;4998536;28;20034;-76
2023/05/16 01:54:50;;;;;;;9.63;7.60;;;;;;;;;;4998683;28;20025;-78
2023/05/16 01:57:16;;;;;;;11.38;7.93;;;;;;;;;;4998822;28;20049;-78
2023/05/16 01:59:44;;;;;;;12.25;7.50;;;;;;;;;;4996900;28;20049;-78
2023/05/16 02:02:09;;;;;;;10.50;8.20;;;;;;;;;;4998914;28;20497;-77
2023/05/16 02:04:34;;;;;;;13.93;8.15;;;;;;;;;;4998080;28;20028;-78
2023/05/16 02:07:00;;;;;;;12.10;8.33;;;;;;;;;;4998463;28;20037;-78
2023/05/16 02:09:26;;;;;;;10.13;7.82;;;;;;;;;;4979942;28;20264;-78
2023/05/16 02:11:51;;;;;;;13.02;8.25;;;;;;;;;;4996280;28;20030;-77
2023/05/16 02:14:16;;;;;;;9.63;8.25;;;;;;;;;;4998779;28;20025;-78
2023/05/16 02:16:42;;;;;;;9.70;7.73;;;;;;;;;;4995867;28;20058;-78
2023/05/16 02:19:07;;;;;;;10.45;8.20;;;;;;;;;;4995898;28;20267;-78
2023/05/16 02:21:33;;;;;;;11.20;8.05;;;;;;;;;;4996636;28;20109;-78
2023/05/16 02:23:58;;;;;;;9.87;7.63;;;;;;;;;;4996862;28;20054;-78
2023/05/16 02:26:23;;;;;;;9.32;8.18;;;;;;;;;;4997659;28;20279;-78
2023/05/16 02:28:48;;;;;;;10.33;7.57;;;;;;;;;;4997504;28;20022;-78
2023/05/16 02:31:28;;;;;;;10.05;8.05;;;;;;;;;;4997925;28;20252;-78
2023/05/16 02:33:53;;;;;;;10.82;7.85;;;;;;;;;;4997597;28;20030;-77
2023/05/16 02:36:18;;;;;;;11.48;8.07;;;;;;;;;;4998213;28;20117;-76
2023/05/16 02:38:43;;;;;;;9.47;8.00;;;;;;;;;;4996148;28;20026;-78
2023/05/16 02:41:09;;;;;;;11.23;8.20;;;;;;;;;;4998631;28;20263;-78
2023/05/16 02:43:34;;;;;;;9.82;8.30;;;;;;;;;;4998156;28;20260;-77
2023/05/16 02:46:00;;;;;;;11.93;8.48;;;;;;;;;;4999590;28;20025;-78
2023/05/16 02:48:25;;;;;;;10.27;7.88;;;;;;;;;;4981043;28;20030;-78
2023/05/16 02:50:50;;;;;;;11.03;7.77;;;;;;;;;;4998301;28;20031;-77
2023/05/16 02:53:16;;;;;;;12.02;7.85;;;;;;;;;;4998229;28;20318;-78
2023/05/16 02:55:42;;;;;;;9.85;8.02;;;;;;;;;;4999116;28;20022;-79
2023/05/16 02:58:07;;;;;;;12.10;8.50;;;;;;;;;;5000750;28;20146;-78
2023/05/16 03:00:32;;;;;;;10.90;7.30;;;;;;;;;;4999638;28;20037;-77
2023/05/16 03:02:58;;;;;;;12.10;7.85;;;;;;;;;;4999618;28;20268;-77
2023/05/16 03:05:23;;;;;;;14.10;8.47;;;;;;;;;;5000043;28;20049;-77
2023/05/16 03:07:48;;;;;;;15.57;8.13;;;;;;;;;;4999937;28;20294;-78
2023/05/16 03:10:15;;;;;;;9.32;7.57;;;;;;;;;;4996022;28;20310;-76
2023/05/16 03:12:40;;;;;;;10.40;7.50;;;;;;;;;;4998283;28;20422;-77
2023/05/16 03:15:08;;;;;;;9.27;7.95;;;;;;;;;;4993560;28;20034;-76
2023/05/16 03:17:42;;;;;;;10.68;8.02;;;;;;;;;;5000218;28;20022;-76
2023/05/16 03:20:08;;;;;;;11.65;7.90;;;;;;;;;;5003533;28;20063;-79
2023/05/16 03:22:33;;;;;;;12.27;8.43;;;;;;;;;;5001851;28;20033;-78
2023/05/16 03:24:58;;;;;;;9.33;8.03;;;;;;;;;;5003305;28;20034;-78
2023/05/16 03:27:26;;;;;;;10.77;8.30;;;;;;;;;;4998647;28;20279;-77
2023/05/16 03:29:51;;;;;;;10.68;8.32;;;;;;;;;;4997414;28;20330;-79
2023/05/16 03:32:16;;;;;;;13.80;8.63;;;;;;;;;;4997805;28;20034;-77
2023/05/16 03:34:41;;;;;;;12.82;9.02;;;;;;;;;;5000659;28;20806;-77
2023/05/16 03:37:07;;;;;;;9.90;8.27;;;;;;;;;;5001164;28;20026;-78
2023/05/16 03:39:32;;;;;;;16.08;9.32;;;;;;;;;;5001374;28;20256;-77
2023/05/16 03:41:57;;;;;;;10.05;8.20;;;;;;;;;;5001236;28;20027;-77
2023/05/16 03:44:23;;;;;;;10.98;8.98;;;;;;;;;;4998067;28;20022;-78
2023/05/16 03:46:50;;;;;;;12.57;9.25;;;;;;;;;;4998076;28;20085;-76
2023/05/16 03:49:15;;;;;;;10.65;8.80;;;;;;;;;;4997072;28;20501;-77
2023/05/16 03:51:40;;;;;;;12.85;9.35;;;;;;;;;;5000925;28;20114;-77
2023/05/16 03:54:05;;;;;;;14.43;8.97;;;;;;;;;;5001055;28;20474;-77
2023/05/16 03:56:31;;;;;;;11.00;9.07;;;;;;;;;;4998852;28;20260;-78
2023/05/16 03:58:57;;;;;;;11.67;8.63;;;;;;;;;;5004107;28;20736;-79
2023/05/16 04:01:22;;;;;;;12.05;8.93;;;;;;;;;;5006023;28;20271;-79
2023/05/16 04:03:47;;;;;;;14.98;9.13;;;;;;;;;;5002719;28;20030;-79
2023/05/16 04:06:12;;;;;;;10.68;8.75;;;;;;;;;;5003496;28;20022;-78
2023/05/16 04:08:39;;;;;;;14.75;8.77;;;;;;;;;;5006642;28;20057;-78
2023/05/16 04:11:04;;;;;;;13.35;9.38;;;;;;;;;;5005755;28;20026;-78
2023/05/16 04:13:29;;;;;;;11.75;8.85;;;;;;;;;;5004991;28;20075;-79
2023/05/16 04:15:55;;;;;;;13.27;9.18;;;;;;;;;;4985141;28;20035;-77
2023/05/16 04:18:20;;;;;;;15.23;9.90;;;;;;;;;;5003993;28;20033;-77
2023/05/16 04:20:46;;;;;;;13.15;9.57;;;;;;;;;;5003965;28;20272;-77
2023/05/16 04:23:11;;;;;;;13.07;9.63;;;;;;;;;;5004300;28;20559;-76
2023/05/16 04:25:37;;;;;;;13.35;9.40;;;;;;;;;;5003454;28;20034;-77
2023/05/16 04:28:02;;;;;;;14.67;9.60;;;;;;;;;;5003316;28;20501;-77
2023/05/16 04:30:27;;;;;;;12.50;8.80;;;;;;;;;;5003226;28;20695;-77
2023/05/16 04:32:52;;;;;;;15.60;9.32;;;;;;;;;;5003489;28;20018;-79
2023/05/16 04:35:18;;;;;;;14.80;9.27;;;;;;;;;;5007696;28;20025;-79
2023/05/16 04:37:43;;;;;;;14.65;9.48;;;;;;;;;;5007473;28;20318;-77
2023/05/16 04:40:09;;;;;;;13.98;9.55;;;;;;;;;;4989113;28;20026;-78
2023/05/16 04:42:34;;;;;;;12.60;9.35;;;;;;;;;;5006478;28;20050;-78
2023/05/16 04:44:59;;;;;;;11.60;9.20;;;;;;;;;;5005984;28;20034;-78
2023/05/16 04:47:25;;;;;;;16.40;9.98;;;;;;;;;;5005156;28;20406;-77
2023/05/16 04:49:50;;;;;;;14.07;9.53;;;;;;;;;;5005611;28;20387;-78
2023/05/16 04:52:15;;;;;;;15.10;8.73;;;;;;;;;;5004928;28;20264;-78
2023/05/16 04:54:40;;;;;;;15.50;9.90;;;;;;;;;;4987246;28;20326;-78
2023/05/16 04:57:05;;;;;;;12.17;9.03;;;;;;;;;;5005096;28;20264;-77
2023/05/16 04:59:31;;;;;;;12.98;8.88;;;;;;;;;;5005680;28;20338;-77
2023/05/16 05:01:56;;;;;;;11.85;8.75;;;;;;;;;;5004462;28;20025;-78
2023/05/16 05:04:21;;;;;;;12.80;9.30;;;;;;;;;;5001632;28;20029;-78
2023/05/16 05:06:47;;;;;;;12.23;8.30;;;;;;;;;;5002604;28;20251;-78
2023/05/16 05:09:12;;;;;;;13.30;8.70;;;;;;;;;;5002366;28;20165;-77
2023/05/16 05:11:37;;;;;;;12.55;8.88;;;;;;;;;;5000694;28;20097;-77
2023/05/16 05:14:03;;;;;;;11.82;8.65;;;;;;;;;;5004963;28;20046;-78
2023/05/16 05:16:28;;;;;;;11.98;8.55;;;;;;;;;;5003891;28;20026;-78
2023/05/16 05:18:53;;;;;;;16.42;9.43;;;;;;;;;;4987188;28;20135;-78
2023/05/16 05:21:19;;;;;;;13.93;9.13;;;;;;;;;;5002911;28;20034;-76
2023/05/16 05:23:45;;;;;;;13.40;9.48;;;;;;;;;;5004944;28;20283;-78
2023/05/16 05:26:10;;;;;;;14.75;9.48;;;;;;;;;;5004151;28;20390;-78
2023/05/16 05:28:36;;;;;;;12.75;9.45;;;;;;;;;;5002769;28;20045;-77
2023/05/16 05:31:04;;;;;;;12.30;9.77;;;;;;;;;;5002199;28;20030;-80
2023/05/16 05:33:29;;;;;;;12.15;10.00;;;;;;;;;;4998511;28;20485;-78
2023/05/16 05:35:55;;;;;;;13.02;8.82;;;;;;;;;;4983347;28;20113;-79
2023/05/16 05:38:20;;;;;;;14.73;8.70;;;;;;;;;;5001762;28;20026;-80
2023/05/16 05:40:45;;;;;;;13.00;8.02;;;;;;;;;;5000434;28;20029;-79
2023/05/16 05:43:11;;;;;;;13.88;9.73;;;;;;;;;;5001381;28;20448;-79
2023/05/16 05:45:36;;;;;;;12.63;10.07;;;;;;;;;;4999406;28;20026;-79
2023/05/16 05:48:02;;;;;;;13.50;9.93;;;;;;;;;;4983665;28;20033;-79
2023/05/16 05:50:27;;;;;;;15.52;9.98;;;;;;;;;;5002599;28;20022;-77
2023/05/16 05:52:53;;;;;;;18.90;10.52;;;;;;;;;;5000777;28;20145;-78
2023/05/16 05:55:19;;;;;;;18.00;10.43;;;;;;;;;;5001962;28;20110;-78
2023/05/16 05:57:44;;;;;;;15.23;9.88;;;;;;;;;;4997384;28;20050;-77
2023/05/16 06:00:10;;;;;;;14.93;10.65;;;;;;;;;;4997063;28;20418;-78
2023/05/16 06:02:36;;;;;;;15.95;10.50;;;;;;;;;;4995817;28;20117;-77
2023/05/16 06:05:01;;;;;;;14.93;10.30;;;;;;;;;;4996150;28;20026;-77
2023/05/16 06:07:26;;;;;;;17.35;11.43;;;;;;;;;;4995459;28;20026;-78
2023/05/16 06:09:51;;;;;;;12.77;10.17;;;;;;;;;;4995636;28;20026;-77
2023/05/16 06:12:16;;;;;;;18.17;11.47;;;;;;;;;;4994456;28;20298;-76
2023/05/16 06:14:42;;;;;;;13.57;10.20;;;;;;;;;;4995933;28;20264;-77
2023/05/16 06:17:07;;;;;;;15.03;10.37;;;;;;;;;;4995484;28;20260;-77
2023/05/16 06:19:32;;;;;;;16.40;11.17;;;;;;;;;;4996008;28;20258;-78
2023/05/16 06:21:57;;;;;;;14.07;10.50;;;;;;;;;;4996197;28;20299;-78
2023/05/16 06:24:23;;;;;;;17.70;11.10;;;;;;;;;;4999194;28;20267;-78
2023/05/16 06:26:49;;;;;;;16.45;10.98;;;;;;;;;;4998195;28;20029;-78
2023/05/16 06:29:14;;;;;;;17.13;12.05;;;;;;;;;;4997570;28;20106;-78
2023/05/16 06:31:40;;;;;;;18.58;12.38;;;;;;;;;;4995801;28;20034;-77
2023/05/16 06:34:08;;;;;;;23.20;13.15;;;;;;;;;;4995296;28;20026;-79
2023/05/16 06:36:33;;;;;;;19.83;12.80;;;;;;;;;;4995254;28;20493;-79
2023/05/16 06:38:58;;;;;;;19.48;13.82;;;;;;;;;;4994941;28;20030;-76
2023/05/16 06:41:25;;;;;;;22.65;13.70;;;;;;;;;;4994797;28;20026;-78
2023/05/16 06:43:50;;;;;;;23.63;13.13;;;;;;;;;;4995293;28;20033;-79
2023/05/16 06:46:15;;;;;;;25.05;15.32;;;;;;;;;;4995783;28;20027;-78
2023/05/16 06:48:41;;;;;;;22.87;14.33;;;;;;;;;;4994784;28;20018;-78
2023/05/16 06:51:06;;;;;;;22.05;15.40;;;;;;;;;;4994623;28;20255;-78
2023/05/16 06:53:31;;;;;;;23.63;15.70;;;;;;;;;;4995527;28;20093;-79
2023/05/16 06:55:56;;;;;;;28.03;16.33;;;;;;;;;;4995186;28;20256;-79
2023/05/16 06:58:21;;;;;;;24.80;17.30;;;;;;;;;;4994794;28;20264;-78
2023/05/16 07:00:48;;;;;;;28.47;17.07;;;;;;;;;;4994523;28;20355;-77
2023/05/16 07:03:14;;;;;;;32.05;17.17;;;;;;;;;;4995770;28;20272;-80
2023/05/16 07:05:39;;;;;;;33.90;18.38;;;;;;;;;;4994849;28;20504;-79
2023/05/16 07:08:04;;;;;;;26.03;17.83;;;;;;;;;;4995115;28;20033;-76
2023/05/16 07:10:30;;;;;;;27.15;16.17;;;;;;;;;;4977022;28;20256;-78
2023/05/16 07:12:55;;;;;;;24.67;15.95;;;;;;;;;;4994002;28;20105;-78
2023/05/16 07:15:20;;;;;;;19.83;13.98;;;;;;;;;;4995448;28;20097;-79
2023/05/16 07:17:46;;;;;;;23.38;15.35;;;;;;;;;;4995286;28;20030;-78
2023/05/16 07:20:13;;;;;;;18.25;13.00;;;;;;;;;;4994827;28;20374;-78
2023/05/16 07:22:39;;;;;;;18.63;13.23;;;;;;;;;;4994570;28;20026;-78
2023/05/16 07:25:05;;;;;;;18.77;11.98;;;;;;;;;;4993898;28;20106;-77
2023/05/16 07:27:31;;;;;;;16.92;12.70;;;;;;;;;;4995558;28;20046;-78
2023/05/16 07:29:56;;;;;;;16.25;12.10;;;;;;;;;;4997400;28;20080;-78
2023/05/16 07:32:21;;;;;;;19.08;11.43;;;;;;;;;;4994895;28;20085;-78
2023/05/16 07:34:46;;;;;;;15.93;10.63;;;;;;;;;;4979761;28;20022;-77
2023/05/16 07:37:12;;;;;;;15.35;10.52;;;;;;;;;;4998851;28;20029;-78
2023/05/16 07:39:38;;;;;;;12.65;10.00;;;;;;;;;;4999491;28;20041;-78
2023/05/16 07:42:05;;;;;;;18.95;9.73;;;;;;;;;;4998862;28;20486;-77
2023/05/16 07:44:30;;;;;;;15.77;10.40;;;;;;;;;;4980661;28;20065;-77
2023/05/16 07:46:56;;;;;;;16.77;10.90;;;;;;;;;;4999018;28;20100;-78
2023/05/16 07:49:21;;;;;;;15.97;9.83;;;;;;;;;;4998727;28;20033;-77
2023/05/16 07:51:46;;;;;;;14.98;9.20;;;;;;;;;;4998722;28;20267;-78
2023/05/16 07:54:11;;;;;;;15.00;9.47;;;;;;;;;;4997619;28;20517;-78
2023/05/16 07:56:37;;;;;;;14.98;9.95;;;;;;;;;;4981447;28;20775;-78
2023/05/16 07:59:04;;;;;;;15.23;10.27;;;;;;;;;;4998342;28;20041;-78
2023/05/16 08:01:30;;;;;;;16.80;9.38;;;;;;;;;;4998537;28;20353;-78
2023/05/16 08:03:55;;;;;;;13.55;9.48;;;;;;;;;;4999352;28;20466;-78
2023/05/16 08:06:20;;;;;;;14.37;8.37;;;;;;;;;;4998926;28;20101;-78
2023/05/16 08:08:45;;;;;;;12.13;7.67;;;;;;;;;;4998581;28;20283;-79
2023/05/16 08:11:11;;;;;;;9.43;7.63;;;;;;;;;;4998959;28;20287;-78
2023/05/16 08:13:39;;;;;;;11.88;8.63;;;;;;;;;;4998953;28;20264;-78
2023/05/16 08:16:04;;;;;;;12.95;8.10;;;;;;;;;;4998741;28;20033;-77
2023/05/16 08:18:29;;;;;;;12.02;8.35;;;;;;;;;;4997050;28;20026;-78
2023/05/16 08:20:55;;;;;;;18.00;8.30;;;;;;;;;;4998558;28;20091;-77
2023/05/16 08:23:20;;;;;;;15.25;8.85;;;;;;;;;;4998277;28;20027;-79
2023/05/16 08:25:45;;;;;;;11.63;8.38;;;;;;;;;;4980285;28;20030;-78
2023/05/16 08:28:11;;;;;;;11.10;8.40;;;;;;;;;;4996578;28;20513;-76
2023/05/16 08:30:36;;;;;;;14.00;8.20;;;;;;;;;;4979952;28;20034;-78
2023/05/16 08:33:03;;;;;;;12.63;7.50;;;;;;;;;;4997728;28;20260;-76
2023/05/16 08:35:29;;;;;;;10.27;7.38;;;;;;;;;;4996868;28;20652;-79
2023/05/16 08:37:55;;;;;;;11.80;7.32;;;;;;;;;;4980284;28;20045;-80
2023/05/16 08:40:23;;;;;;;9.88;7.18;;;;;;;;;;4997998;28;20039;-77
2023/05/16 08:42:49;;;;;;;10.70;7.32;;;;;;;;;;4997568;28;20109;-78
2023/05/16 08:45:14;;;;;;;11.35;7.43;;;;;;;;;;4997031;28;20130;-78
2023/05/16 08:47:41;;;;;;;12.82;7.50;;;;;;;;;;4997877;28;20018;-77
2023/05/16 08:50:08;;;;;;;8.90;6.88;;;;;;;;;;4998520;28;20478;-78
2023/05/16 08:52:36;;;;;;;14.07;7.15;;;;;;;;;;4996718;28;20022;-78
2023/05/16 08:55:04;;;;;;;12.10;7.60;;;;;;;;;;4996783;28;20023;-77
2023/05/16 08:57:31;;;;;;;10.98;7.25;;;;;;;;;;4995779;28;20509;-76
2023/05/16 08:59:56;;;;;;;10.55;7.20;;;;;;;;;;4997043;28;20120;-77
2023/05/16 09:02:22;;;;;;;12.68;6.90;;;;;;;;;;4997188;28;20438;-78
2023/05/16 09:04:48;;;;;;;8.85;6.38;;;;;;;;;;4999137;28;20085;-77
2023/05/16 09:07:13;;;;;;;13.57;6.80;;;;;;;;;;4999027;28;20117;-78
2023/05/16 09:09:41;;;;;;;10.95;6.90;;;;;;;;;;4998320;28;20081;-77
2023/05/16 09:12:07;;;;;;;9.50;6.78;;;;;;;;;;4997260;28;20114;-77
2023/05/16 09:14:32;;;;;;;10.73;6.78;;;;;;;;;;4997114;28;20058;-76
2023/05/16 09:17:05;;;;;;;11.43;6.45;;;;;;;;;;4996923;28;20105;-78
2023/05/16 09:19:40;;;;;;;12.85;7.05;;;;;;;;;;4999240;28;20050;-76
2023/05/16 09:22:08;;;;;;;10.50;6.55;;;;;;;;;;5000776;28;20050;-78
2023/05/16 09:24:37;;;;;;;9.18;6.40;;;;;;;;;;4997729;28;20034;-77
2023/05/16 09:27:13;;;;;;;11.10;6.35;;;;;;;;;;4979515;28;20022;-76
2023/05/16 09:29:40;;;;;;;12.18;6.70;;;;;;;;;;4997310;28;20199;-78
2023/05/16 09:32:14;;;;;;;10.38;6.25;;;;;;;;;;4997311;28;20030;-77
2023/05/16 09:34:50;;;;;;;12.07;6.40;;;;;;;;;;4997243;28;20495;-77
2023/05/16 09:37:15;;;;;;;7.22;5.53;;;;;;;;;;4996847;28;20029;-77
2023/05/16 09:39:49;;;;;;;8.07;5.75;;;;;;;;;;4996990;28;20061;-77
2023/05/16 09:42:15;;;;;;;10.57;6.20;;;;;;;;;;4997032;28;20470;-76
2023/05/16 09:44:44;;;;;;;8.57;5.93;;;;;;;;;;4996932;28;20039;-77
2023/05/16 09:47:10;;;;;;;7.60;6.03;;;;;;;;;;4997153;28;20041;-77
2023/05/16 09:49:36;;;;;;;14.93;6.05;;;;;;;;;;4996703;28;20030;-78
2023/05/16 09:52:02;;;;;;;10.43;6.32;;;;;;;;;;4996857;28;20497;-77
2023/05/16 09:54:30;;;;;;;11.55;5.93;;;;;;;;;;4996533;28;20085;-77
2023/05/16 09:56:55;;;;;;;13.65;6.10;;;;;;;;;;4978794;28;20401;-79
2023/05/16 09:59:20;;;;;;;9.40;6.00;;;;;;;;;;4979190;28;20026;-78
2023/05/16 10:01:47;;;;;;;11.48;6.22;;;;;;;;;;4996780;28;20561;-77
2023/05/16 10:04:14;;;;;;;11.30;5.70;;;;;;;;;;4996938;28;20030;-77
2023/05/16 10:06:41;;;;;;;8.43;5.70;;;;;;;;;;4996637;28;20034;-78
2023/05/16 10:09:10;;;;;;;12.68;5.90;;;;;;;;;;4996245;28;20316;-78
2023/05/16 10:11:35;;;;;;;15.95;6.05;;;;;;;;;;4978838;28;20018;-78
2023/05/16 10:14:03;;;;;;;13.45;5.75;;;;;;;;;;4995954;28;20029;-78
2023/05/16 10:16:28;;;;;;;14.10;5.80;;;;;;;;;;4996649;28;20029;-79
2023/05/16 10:18:54;;;;;;;11.75;5.47;;;;;;;;;;4995928;28;20026;-78
2023/05/16 10:21:21;;;;;;;8.43;5.55;;;;;;;;;;4979383;28;20076;-77
2023/05/16 10:23:50;;;;;;;15.27;5.65;;;;;;;;;;4996009;28;20026;-77
2023/05/16 10:26:16;;;;;;;8.80;5.25;;;;;;;;;;4996514;28;20030;-79
2023/05/16 10:28:41;;;;;;;9.05;4.93;;;;;;;;;;4997241;28;20530;-78
2023/05/16 10:31:09;;;;;;;12.80;5.18;;;;;;;;;;4996938;28;20038;-79
2023/05/16 10:33:35;;;;;;;6.60;4.78;;;;;;;;;;4996767;28;20383;-79
2023/05/16 10:36:02;;;;;;;12.48;5.00;;;;;;;;;;4996681;28;20033;-78
2023/05/16 10:38:28;;;;;;;6.28;4.95;;;;;;;;;;4995622;28;20022;-79
2023/05/16 10:40:54;;;;;;;13.15;5.10;;;;;;;;;;4995150;28;20088;-78
2023/05/16 10:43:29;;;;;;;8.82;5.28;;;;;;;;;;4996008;28;20033;-79
2023/05/16 10:46:02;;;;;;;8.38;4.80;;;;;;;;;;4980407;28;20029;-78
2023/05/16 10:48:32;;;;;;;8.57;5.00;;;;;;;;;;4997574;28;20033;-78
2023/05/16 10:50:57;;;;;;;9.45;5.05;;;;;;;;;;4996560;28;20022;-77
2023/05/16 10:53:33;;;;;;;8.82;4.95;;;;;;;;;;4996611;28;20393;-78
2023/05/16 10:55:58;;;;;;;9.85;5.03;;;;;;;;;;4979105;28;20018;-78
2023/05/16 10:58:45;;;;;;;9.97;5.67;;;;;;;;;;4994261;28;20026;-78
2023/05/16 11:01:15;;;;;;;6.97;4.65;;;;;;;;;;4996046;28;20030;-78
2023/05/16 11:03:55;;;;;;;8.57;4.90;;;;;;;;;;4994785;28;20069;-78
2023/05/16 11:06:21;;;;;;;7.47;4.35;;;;;;;;;;4995676;28;20023;-78
2023/05/16 11:09:09;;;;;;;6.05;4.18;;;;;;;;;;4994327;28;20030;-78
2023/05/16 11:11:41;;;;;;;8.77;4.22;;;;;;;;;;4994574;28;20057;-77
2023/05/16 11:14:07;;;;;;;7.25;4.00;;;;;;;;;;4976679;28;20371;-80
2023/05/16 11:16:34;;;;;;;7.75;3.90;;;;;;;;;;4994002;28;20057;-78
2023/05/16 11:19:05;;;;;;;7.00;4.15;;;;;;;;;;4994689;28;20026;-77
2023/05/16 11:22:07;;;;;;;8.23;4.00;;;;;;;;;;4994269;28;20401;-77
2023/05/16 11:24:34;;;;;;;6.13;3.67;;;;;;;;;;4995209;28;20044;-78
2023/05/16 11:27:00;;;;;;;6.43;3.50;;;;;;;;;;4994655;28;20544;-79
2023/05/16 11:29:27;;;;;;;5.82;3.70;;;;;;;;;;4977909;28;20116;-79
2023/05/16 11:31:52;;;;;;;6.95;3.90;;;;;;;;;;4995648;28;20030;-79
2023/05/16 11:34:18;;;;;;;5.53;4.00;;;;;;;;;;4994249;28;20057;-78
2023/05/16 11:36:43;;;;;;;7.47;3.40;;;;;;;;;;4994125;28;20260;-79
2023/05/16 11:39:09;;;;;;;6.32;4.05;;;;;;;;;;4995320;28;20034;-77
2023/05/16 11:41:34;;;;;;;6.40;3.58;;;;;;;;;;4995833;28;20019;-78
2023/05/16 11:44:00;;;;;;;7.30;3.80;;;;;;;;;;4996125;28;20054;-79
2023/05/16 11:46:26;;;;;;;7.35;3.70;;;;;;;;;;4995275;28;20026;-77
2023/05/16 11:48:51;;;;;;;8.45;3.63;;;;;;;;;;4995075;28;20034;-79
2023/05/16 11:51:19;;;;;;;6.43;3.25;;;;;;;;;;4993727;28;20039;-76
2023/05/16 11:53:45;;;;;;;6.28;3.42;;;;;;;;;;4977498;28;20018;-80
2023/05/16 11:56:11;;;;;;;8.95;3.50;;;;;;;;;;4994764;28;20026;-77
2023/05/16 11:58:38;;;;;;;8.90;3.40;;;;;;;;;;4992830;28;20023;-77
2023/05/16 12:01:04;;;;;;;9.43;3.38;;;;;;;;;;4992778;28;20026;-77
2023/05/16 12:03:32;;;;;;;5.88;3.10;;;;;;;;;;4994454;28;20543;-78
2023/05/16 12:05:57;;;;;;;4.82;3.35;;;;;;;;;;4994782;28;20030;-78
2023/05/16 12:08:26;;;;;;;6.65;3.35;;;;;;;;;;4995597;28;20037;-78
2023/05/16 12:10:52;;;;;;;5.53;3.22;;;;;;;;;;4994417;28;20124;-76
2023/05/16 12:13:19;;;;;;;5.95;3.50;;;;;;;;;;4976884;28;20052;-78
2023/05/16 12:15:45;;;;;;;5.68;3.35;;;;;;;;;;4994238;28;20053;-77
2023/05/16 12:18:11;;;;;;;5.63;3.17;;;;;;;;;;4994058;28;20030;-76
2023/05/16 12:20:36;;;;;;;4.03;3.10;;;;;;;;;;4997268;28;20037;-80
2023/05/16 12:23:03;;;;;;;5.20;2.75;;;;;;;;;;5000243;28;20034;-78
2023/05/16 12:25:32;;;;;;;7.25;3.35;;;;;;;;;;4999229;28;20142;-78
2023/05/16 12:28:00;;;;;;;6.80;3.20;;;;;;;;;;4999582;28;20026;-78
2023/05/16 12:30:26;;;;;;;4.55;3.10;;;;;;;;;;4998357;28;20097;-76
2023/05/16 12:32:57;;;;;;;3.85;3.20;;;;;;;;;;4998016;28;20026;-79
2023/05/16 12:35:24;;;;;;;4.63;2.88;;;;;;;;;;4998546;28;20470;-77
2023/05/16 12:37:50;;;;;;;7.18;2.80;;;;;;;;;;4998216;28;20034;-78
2023/05/16 12:40:16;;;;;;;6.30;2.88;;;;;;;;;;4998554;28;20045;-78
2023/05/16 12:42:44;;;;;;;5.82;3.03;;;;;;;;;;4997617;28;20482;-77
2023/05/16 12:45:15;;;;;;;6.25;3.35;;;;;;;;;;4996463;28;20070;-79
2023/05/16 12:47:40;;;;;;;7.53;2.92;;;;;;;;;;4998803;28;20521;-79
2023/05/16 12:50:11;;;;;;;11.20;3.00;;;;;;;;;;4998164;28;20031;-79
2023/05/16 12:52:36;;;;;;;5.88;3.03;;;;;;;;;;4998296;28;20026;-79
2023/05/16 12:55:02;;;;;;;8.57;2.90;;;;;;;;;;4998707;28;20045;-77
2023/05/16 12:57:27;;;;;;;7.40;2.85;;;;;;;;;;4998848;28;20264;-78
2023/05/16 12:59:52;;;;;;;6.72;2.85;;;;;;;;;;4998297;28;20547;-79
2023/05/16 13:02:18;;;;;;;4.45;2.72;;;;;;;;;;4997427;28;20038;-79
2023/05/16 13:04:43;;;;;;;5.07;2.87;;;;;;;;;;4996797;28;20069;-77
2023/05/16 13:07:08;;;;;;;5.87;2.67;;;;;;;;;;4996653;28;20264;-78
2023/05/16 13:09:33;;;;;;;6.60;2.55;;;;;;;;;;4995455;28;20743;-77
2023/05/16 13:11:59;;;;;;;6.47;2.93;;;;;;;;;;4996912;28;20070;-77
2023/05/16 13:14:24;;;;;;;7.28;2.88;;;;;;;;;;4996474;28;20304;-78
2023/05/16 13:16:50;;;;;;;3.87;2.60;;;;;;;;;;4996345;28;20351;-77
2023/05/16 13:19:15;;;;;;;7.45;2.53;;;;;;;;;;4996039;28;20631;-76
2023/05/16 13:21:40;;;;;;;3.80;2.60;;;;;;;;;;4996286;28;20034;-78
2023/05/16 13:24:06;;;;;;;3.53;2.50;;;;;;;;;;4995396;28;20115;-77
2023/05/16 13:26:31;;;;;;;5.30;2.40;;;;;;;;;;4996498;28;20323;-77
2023/05/16 13:28:56;;;;;;;4.55;2.38;;;;;;;;;;4996443;28;20478;-78
2023/05/16 13:31:21;;;;;;;4.40;2.43;;;;;;;;;;4996646;28;20038;-78
2023/05/16 13:33:47;;;;;;;6.28;2.53;;;;;;;;;;4996042;28;20275;-78
2023/05/16 13:36:13;;;;;;;5.40;2.72;;;;;;;;;;4996184;28;20412;-78
2023/05/16 13:38:38;;;;;;;4.82;2.55;;;;;;;;;;4995716;28;20075;-79
2023/05/16 13:41:03;;;;;;;3.37;2.57;;;;;;;;;;4996299;28;20018;-76
2023/05/16 13:43:28;;;;;;;4.93;2.60;;;;;;;;;;4994561;28;20350;-78
2023/05/16 13:45:54;;;;;;;4.70;2.40;;;;;;;;;;4978311;28;20327;-79
2023/05/16 13:48:19;;;;;;;4.78;2.50;;;;;;;;;;4995925;28;20271;-77
2023/05/16 13:50:45;;;;;;;4.05;2.67;;;;;;;;;;4978690;28;20026;-78
2023/05/16 13:53:11;;;;;;;3.13;2.30;;;;;;;;;;4996831;28;20022;-77
2023/05/16 13:55:36;;;;;;;3.40;2.20;;;;;;;;;;4996481;28;20025;-77
2023/05/16 13:58:01;;;;;;;7.05;2.10;;;;;;;;;;4995754;28;20026;-78
2023/05/16 14:00:28;;;;;;;3.75;2.30;;;;;;;;;;4995695;28;20031;-78
2023/05/16 14:02:53;;;;;;;2.90;2.03;;;;;;;;;;4978577;28;20030;-77
2023/05/16 14:05:18;;;;;;;4.80;2.28;;;;;;;;;;4994195;28;20104;-78
2023/05/16 14:07:44;;;;;;;3.90;2.55;;;;;;;;;;4995956;28;20413;-80
2023/05/16 14:10:09;;;;;;;3.58;2.20;;;;;;;;;;4978074;28;20486;-80
2023/05/16 14:12:35;;;;;;;3.20;2.08;;;;;;;;;;4997064;28;20036;-78
2023/05/16 14:15:00;;;;;;;3.55;2.40;;;;;;;;;;4996362;28;20041;-77
2023/05/16 14:17:25;;;;;;;5.40;2.30;;;;;;;;;;4996341;28;20022;-78
2023/05/16 14:19:52;;;;;;;6.05;1.77;;;;;;;;;;4995184;28;20030;-78
2023/05/16 14:22:18;;;;;;;3.00;1.85;;;;;;;;;;4995712;28;20175;-79
2023/05/16 14:24:43;;;;;;;4.05;1.55;;;;;;;;;;4995125;28;20023;-78
2023/05/16 14:27:08;;;;;;;3.10;1.92;;;;;;;;;;4994670;28;20026;-77
2023/05/16 14:29:33;;;;;;;5.68;2.05;;;;;;;;;;4995745;28;20486;-77
2023/05/16 14:31:58;;;;;;;4.65;1.80;;;;;;;;;;4996563;28;20038;-78